logo
App data

Silent Storm Gold Edition

Silent Storm from leading Russian developer Nival is a true 3D tactical turn-based Role-Playing-Game set against the backdrop of WWII. As the conflict rages on the frontlines, you’ll be leading a small multinational squad behind enemy lines to gather information and wreak havoc on your enemies while trying to thwart a mysterious new...
Store | Hub | SteamDB
Developer: Nival Publisher: THQ Nordic
Genre: Action, RPG, Strategy
Languages: English, French, German, Russian
Tags: Strategy (118), Turn-Based Tactics (113), RPG (112), Turn-Based (105), Tactical (87), World War II (75), Alternate History (57), Turn-Based Strategy (56), Tactical RPG (54), Classic (43), Action (38), Singleplayer (29), Sci-fi (22), Destruction (15), Stealth (14), Isometric (9)
Category: Single-player
Release date: Oct 2, 2013
Price: $9.99
Score rank: 73% Userscore: 89% Old userscore: 90% Metascore: 83%
Owners: 100,000 .. 200,000
Followers: 7,157
Peak concurrent players yesterday: 22
Playtime in the last 2 weeks: 04:29 (average) 04:29 (median)
Playtime total: 05:07 (average) 01:24 (median)

Steam Spy is still in beta, so expect major bugs.

Owners data:

Access restricted.

This feature is only available to users with special access rights. Sorry.

If you want to proceed, you need to register or log in first and then back Steam Spy on Patreon. Look for Indie or Pro pledge.

Don't forget to use the same email as on Steam Spy!

Audience in 2 weeks:

Access restricted.

This feature is only available to users with special access rights. Sorry.

If you want to proceed, you need to register or log in first and then back Steam Spy on Patreon. Look for Indie or Pro pledge.

Don't forget to use the same email as on Steam Spy!

Peak daily concurrent players:

CCU data courtesy of SteamDB. Used with permission.

Hourly concurrent players:

YouTube:

The views data is based on top 50 videos uploaded last week. Actual number of views might be more than the number shown.

The displayed number of videos uploaded yesterday is limited to 50, so if there were more videos uploaded, the number will still show 50.

If the game has commonly used word as its name (like "FEAR" or "Volume") its number of Youtube views might be wrong.

Games similar to this one:

# Game Release date
Price
Score rank
(Userscore / Metascore)
Owners
Players
Playtime (Median)
1 Militia Dec 2, 2015 $5.9999% (98%)0 .. 20,0000%00:00 (00:00)
2 Little Big Adventure 2 Oct 20, 2015 $3.9999% (98%)20,000 .. 50,0000%00:00 (00:00)
3 Dungeon Warfare Nov 4, 2015 $9.9997% (97%)20,000 .. 50,0003.39%00:58 (00:38)
4 Seven Kingdoms: Ancient Adversaries Jun 8, 1998 $5.99N/A (N/A)0 .. 20,0000%00:00 (00:00)
5 Voodoo Vince: Remastered Apr 18, 2017 $14.9995% (96%/63%)0 .. 20,0000%00:00 (00:00)
6 Defend The Highlands Nov 6, 2015 $9.99N/A (N/A)100,000 .. 200,0001.29%01:32 (02:27)
7 Imperium Galactica Jan 19, 2017 $4.99N/A (N/A)0 .. 20,0000%00:00 (00:00)
8 Supercharged Robot VULKAISER Jun 4, 2015 $4.9992% (95%)20,000 .. 50,0000%00:00 (00:00)
9 Flywrench Aug 24, 2015 $6.9992% (95%)0 .. 20,0000%00:00 (00:00)
10 Hegemony Gold: Wars of Ancient Greece Mar 30, 2012 $14.9992% (95%)20,000 .. 50,0000%00:00 (00:00)
11 Chicken Invaders 2 Mar 4, 2016 $3.9992% (95%)0 .. 20,0000%00:00 (00:00)
12 PixelJunk Shooter Nov 11, 2013 $8.9990% (94%/73%)100,000 .. 200,0000%00:00 (00:00)
13 Kalimba Apr 22, 2015 $9.9990% (94%/81%)0 .. 20,0000%00:00 (00:00)
14 Adventure in the Tower of Flight Dec 23, 2015 $4.99N/A (N/A)0 .. 20,0000%00:00 (00:00)
15 Handsome Mr. Frog Aug 8, 2016 $0.9990% (94%)0 .. 20,0000%00:00 (00:00)
16 Audio Arena Jul 25, 2016 $6.99N/A (N/A)0 .. 20,0000%00:00 (00:00)
17 Gold Rush! Classic Jul 25, 2014 $2.99N/A (N/A)200,000 .. 500,0000.86%03:45 (04:24)
18 Run or Die Dec 11, 2014 $4.9990% (94%)0 .. 20,0000%00:00 (00:00)
19 ESCHATOS Sep 18, 2015 $14.9990% (94%)0 .. 20,00033.33%00:03 (00:01)
20 Star Trek: Judgment Rites May 8, 2015 $9.99N/A (N/A)0 .. 20,0000%00:00 (00:00)
21 Neon Chrome Apr 28, 2016 $14.9990% (94%/74%)200,000 .. 500,0002.3%04:26 (02:23)
22 Majesty Gold HD Sep 4, 2009 $9.9990% (94%)100,000 .. 200,0000%00:00 (00:00)
23 Templar Battleforce Sep 21, 2015 $9.9990% (94%)20,000 .. 50,0003.7%00:01 (00:00)
24 Stick it to The Man! Dec 13, 2013 $7.9990% (94%/83%)20,000 .. 50,0000%00:00 (00:00)
25 Outcast 1.1 Dec 18, 2014 $5.9990% (94%)20,000 .. 50,0000%00:00 (00:00)
26 Pharaoh Rebirth+ Mar 17, 2016 $9.9987% (93%)0 .. 20,0000%00:00 (00:00)
27 Eufloria HD Oct 14, 2014 $14.9987% (93%)200,000 .. 500,0000%00:00 (00:00)
28 Anarcute Jul 12, 2016 $14.9987% (93%/79%)0 .. 20,0000%00:00 (00:00)
29 Kick Ass Commandos Nov 17, 2016 $9.9987% (93%)20,000 .. 50,0000%00:00 (00:00)
30 Tallowmere Mar 3, 2015 $3.9987% (93%)20,000 .. 50,0003.64%00:25 (00:16)
31 Major Mayhem Feb 24, 2014 $4.99N/A (N/A)20,000 .. 50,0000%00:00 (00:00)
32 Super Trench Attack! Jul 24, 2014 $0.4987% (93%)50,000 .. 100,0000.81%26:33 (17:41)
33 Bleed Jul 3, 2013 $4.9987% (93%)100,000 .. 200,0000%00:00 (00:00)
34 Death Ray Manta SE Sep 17, 2015 $1.9983% (92%)20,000 .. 50,0000%00:00 (00:00)
35 Shmups Skill Test シューティング技能検定 Jun 9, 2016 $4.99N/A (N/A)0 .. 20,0000%00:00 (00:00)
36 Battle Academy 2: Eastern Front Sep 12, 2014 $39.9983% (92%/78%)0 .. 20,0000%00:00 (00:00)
37 Miracle Fly Oct 26, 2015 $7.99N/A (N/A)20,000 .. 50,0000%00:00 (00:00)
38 Great Big War Game Aug 28, 2012 $6.99N/A (N/A)0 .. 20,0000%00:00 (00:00)
39 Ys VI: The Ark of Napishtim Apr 28, 2015 $19.9983% (92%/76%)50,000 .. 100,0000%00:00 (00:00)
40 Counter Spell Oct 5, 2015 $9.9983% (92%)0 .. 20,0000%00:00 (00:00)
41 Weird Hero Nov 18, 2016 $0.7483% (92%)0 .. 20,0000%00:00 (00:00)
42 Knightmare Tower Jun 16, 2014 $3.9983% (92%)0 .. 20,0000%00:00 (00:00)
43 Clash of Puppets Dec 16, 2014 $4.99N/A (N/A)0 .. 20,0000%00:00 (00:00)
44 Ittle Dew Jul 23, 2013 $9.9979% (91%/67%)100,000 .. 200,0000.37%00:35 (00:11)
45 Darknet Jun 8, 2017 $14.9979% (91%)0 .. 20,0000%00:00 (00:00)
46 Super Cyborg Jul 8, 2015 $4.9979% (91%)20,000 .. 50,0001.61%01:07 (00:44)
47 Angry Video Game Nerd II: ASSimilation Mar 29, 2016 $9.9979% (91%)20,000 .. 50,0000%00:00 (00:00)
48 Ace of Seafood Apr 8, 2016 $5.9979% (91%)0 .. 20,0000%00:00 (00:00)
49 Apocalypse: Party's Over May 30, 2016 $4.9979% (91%)0 .. 20,0000%00:00 (00:00)
50 Earth Defense Force: Insect Armageddon Dec 14, 2011 $9.9979% (91%/69%)50,000 .. 100,0000%00:00 (00:00)
51 Skulls of the Shogun Jul 29, 2013 $9.9979% (91%/72%)100,000 .. 200,0000%00:00 (00:00)
52 Warrior Kings: Battles May 6, 2014 $9.9979% (91%/64%)0 .. 20,0000%00:00 (00:00)
53 Flashpoint Campaigns: Red Storm Player's Edition Oct 9, 2013 $49.9979% (91%)0 .. 20,0000%00:00 (00:00)
54 Dandy: Or a Brief Glimpse Into the Life of the Candy Alchemist Aug 4, 2015 $9.99N/A (N/A)0 .. 20,0000%00:00 (00:00)
55 Mad Bullets Jun 10, 2016 $2.9979% (91%)0 .. 20,0000%00:00 (00:00)
56 Blue Estate The Game Apr 8, 2015 $12.9979% (91%/59%)50,000 .. 100,0001.61%01:03 (00:41)
57 Below Kryll Sep 7, 2015 $4.9979% (91%)0 .. 20,0000%00:00 (00:00)
58 Wild Guns Reloaded Jul 11, 2017 $19.9979% (91%)0 .. 20,0000%00:00 (00:00)
59 Wars and Warriors: Joan of Arc Feb 7, 2004 $6.9979% (91%/60%)0 .. 20,0000%00:00 (00:00)
60 Kohan II: Kings of War Aug 24, 2011 $9.9979% (91%/81%)20,000 .. 50,0000%00:00 (00:00)
61 The Juicer Sep 6, 2012 $0.9979% (91%)20,000 .. 50,0002.53%04:19 (01:43)
62 Khet 2.0 Oct 1, 2014 $9.9979% (91%)50,000 .. 100,0000%00:00 (00:00)
63 Spider: Rite of the Shrouded Moon Aug 6, 2015 $9.99N/A (N/A)20,000 .. 50,0000%00:00 (00:00)
64 Momodora III Jul 1, 2014 $1.9979% (91%)50,000 .. 100,0000%00:00 (00:00)
65 Swords and Soldiers HD Dec 2, 2010 $9.9976% (90%)100,000 .. 200,0000.59%04:56 (01:06)
66 Death's Hangover Jan 20, 2017 $4.9976% (90%)20,000 .. 50,0007%02:46 (03:57)
67 Headlander Jul 25, 2016 $19.9976% (90%/74%)100,000 .. 200,0000.84%01:01 (00:40)
68 Planet of the Eyes Aug 24, 2015 $9.9976% (90%/66%)50,000 .. 100,0000%00:00 (00:00)
69 Kohan: Ahriman's Gift Nov 6, 2001 $9.99N/A (N/A/79%)0 .. 20,0000%00:00 (00:00)
70 Superstatic Sep 15, 2015 $4.99N/A (N/A)0 .. 20,0000%00:00 (00:00)
71 Sneaky Sneaky Nov 12, 2014 $4.9976% (90%/63%)0 .. 20,0000%00:00 (00:00)
72 Near Death Aug 2, 2016 $14.9976% (90%/70%)0 .. 20,0000%00:00 (00:00)
73 Armed with Wings: Rearmed Jun 1, 2017 $9.9976% (90%)20,000 .. 50,0001.18%00:01 (00:00)
74 Valley Aug 24, 2016 $19.9976% (90%)100,000 .. 200,0001.6%02:58 (02:41)
75 RIVE: Wreck, Hack, Die, Retry! Sep 13, 2016 $14.9976% (90%)200,000 .. 500,0000.6%04:23 (04:16)
76 Amaranthine Apr 6, 2016 $2.99N/A (N/A)0 .. 20,0006.25%02:07 (01:24)
77 CastleStorm Jul 29, 2013 $9.9972% (89%/73%)100,000 .. 200,0000%00:00 (00:00)
78 Command: Northern Inferno Oct 22, 2015 $19.99N/A (N/A)0 .. 20,0000%00:00 (00:00)
79 Codename: Panzers, Phase Two Jul 21, 2005 $14.9972% (89%/80%)0 .. 20,0000%00:00 (00:00)
80 Lethe - Episode One Aug 1, 2016 $14.9972% (89%)0 .. 20,0000%00:00 (00:00)
81 Reverse Crawl Sep 24, 2015 $2.9972% (89%)20,000 .. 50,0000.73%00:15 (00:05)
82 Zombo Buster Rising Oct 2, 2016 $1.9972% (89%)0 .. 20,0001.37%01:00 (00:20)
83 Warhammer 40,000: Dawn of War – Winter Assault Aug 7, 2007 $12.9972% (89%)500,000 .. 1,000,0000%00:00 (00:00)
84 MoonBase Commander Feb 6, 2014 $5.9972% (89%/77%)0 .. 20,0000%00:00 (00:00)
85 Atom Zombie Smasher Mar 14, 2011 $9.9970% (88%/75%)200,000 .. 500,0000%00:00 (00:00)
86 Viking Squad Oct 4, 2016 $14.9970% (88%)0 .. 20,00016.67%02:58 (00:59)
87 Spectromancer Feb 11, 2009 $9.9970% (88%)20,000 .. 50,0000%00:00 (00:00)
88 Earn to Die 2 May 5, 2016 $4.9970% (88%)0 .. 20,0003.7%01:43 (00:34)
89 Mr. Shifty Apr 13, 2017 $14.9970% (88%)50,000 .. 100,0001.38%02:35 (02:18)
90 Tcheco in the Castle of Lucio Jun 22, 2015 $0.9970% (88%)50,000 .. 100,0000.66%03:28 (02:18)
91 Battlepillars Gold Edition Apr 28, 2014 $4.9970% (88%)20,000 .. 50,0000%00:00 (00:00)
92 The Fall May 30, 2014 $9.9970% (88%/76%)200,000 .. 500,0000.28%02:05 (00:41)
93 Anodyne Mar 22, 2013 $9.9970% (88%/75%)100,000 .. 200,0000%00:00 (00:00)
94 Super Furball May 13, 2014 $3.99N/A (N/A)0 .. 20,0000%00:00 (00:00)
95 Avoid - Sensory Overload Apr 8, 2014 $4.9970% (88%)0 .. 20,0000%00:00 (00:00)
96 Greed Corp Dec 10, 2010 $9.9970% (88%/76%)200,000 .. 500,0000.33%00:55 (00:18)
97 Fort Meow Jun 25, 2015 $7.9970% (88%)0 .. 20,0000%00:00 (00:00)
98 Explosionade Sep 23, 2015 $3.99N/A (N/A)0 .. 20,0000%00:00 (00:00)
99 Graviteam Tactics: Mius-Front Mar 4, 2016 $34.9970% (88%)0 .. 20,0000%00:00 (00:00)
100 The Way May 20, 2016 $14.9970% (88%/67%)50,000 .. 100,0002.9%02:01 (01:28)
101 Lethal VR Nov 8, 2016 $14.9967% (87%/66%)0 .. 20,0000%00:00 (00:00)
102 Syrian Warfare Feb 21, 2017 $14.9967% (87%)50,000 .. 100,0007.14%02:25 (00:49)
103 Bullet Sorrow VR Apr 17, 2017 $19.9967% (87%)0 .. 20,0000%00:00 (00:00)
104 Neon Shadow Aug 25, 2016 $4.99N/A (N/A)0 .. 20,0000%00:00 (00:00)
105 Spooky Cats Jun 4, 2015 $0.8967% (87%)20,000 .. 50,0000%00:00 (00:00)
106 Shadow Blade: Reload Aug 10, 2015 $14.9967% (87%/70%)20,000 .. 50,0000%00:00 (00:00)
107 Blacksea Odyssey Jun 1, 2016 $9.9967% (87%/74%)20,000 .. 50,0000%00:00 (00:00)
108 Sang-Froid - Tales of Werewolves Apr 5, 2013 Free67% (87%/79%)200,000 .. 500,0000.18%05:59 (01:59)
109 The Tiny Tale 2 Jan 30, 2015 $6.99N/A (N/A)0 .. 20,0000%00:00 (00:00)
110 TRON 2.0 Oct 10, 2014 $9.9967% (87%/84%)20,000 .. 50,0000%00:00 (00:00)
111 Magnifico Dec 2, 2014 $4.99N/A (N/A)50,000 .. 100,0000%00:00 (00:00)
112 Supreme Commander Sep 28, 2011 $12.9967% (87%/86%)500,000 .. 1,000,0000.29%08:00 (05:20)
113 NOBUNAGA'S AMBITION: Souzou (Traditional Chinese version) Aug 2014 $24.9964% (86%)20,000 .. 50,00013.33%17:31 (11:40)
114 Ballistic Tanks Sep 20, 2016 $4.9964% (86%)0 .. 20,00015.38%00:41 (00:27)
115 Super Chibi Knight Jun 24, 2015 $4.9964% (86%)20,000 .. 50,0000%00:00 (00:00)
116 Meltdown Jun 5, 2014 $6.9964% (86%)50,000 .. 100,0000.78%01:36 (00:32)
117 Civilization IV: Warlords Jul 24, 2006 $4.9964% (86%/84%)1,000,000 .. 2,000,0000%00:00 (00:00)
118 Time Rifters Oct 21, 2014 $9.9964% (86%)0 .. 20,0000%00:00 (00:00)
119 Ghost Master Dec 21, 2006 $4.9964% (86%/81%)100,000 .. 200,0001.42%00:54 (00:54)
120 Executive Assault Jul 17, 2015 $12.9964% (86%)20,000 .. 50,0000%00:00 (00:00)
121 Slash or Die Jun 3, 2016 $1.4964% (86%)50,000 .. 100,0000.85%02:14 (01:29)
122 Rush for Berlin Gold Oct 29, 2009 $4.9964% (86%/76%)20,000 .. 50,0000%00:00 (00:00)
123 Star Ruler Sep 20, 2010 $9.9964% (86%)100,000 .. 200,0000%00:00 (00:00)
124 VelocityUltra Dec 12, 2013 $9.9964% (86%)50,000 .. 100,0000.64%06:16 (02:05)
125 Arcane Sorcery Sep 15, 2015 $4.99N/A (N/A)0 .. 20,0000%00:00 (00:00)
126 Age of Wonders Shadow Magic Oct 2010 $2.4964% (86%/82%)100,000 .. 200,0000%00:00 (00:00)
127 The Haunted: Hells Reach Oct 24, 2011 $8.9964% (86%/51%)50,000 .. 100,0000%00:00 (00:00)
128 N2O: Nitrous Oxide Jun 29, 2015 $4.99N/A (N/A)0 .. 20,0000%00:00 (00:00)
129 Dustoff Heli Rescue Mar 6, 2015 $3.9961% (85%)20,000 .. 50,0000%00:00 (00:00)
130 Interloper May 21, 2015 Free61% (85%/77%)50,000 .. 100,0001.15%03:30 (02:47)
131 ShootMania Storm Apr 10, 2013 $19.9961% (85%/76%)50,000 .. 100,0000%00:00 (00:00)
132 Steel Rain Dec 3, 2015 $9.99N/A (N/A)0 .. 20,0001.56%03:25 (01:08)
133 Act of War: Direct Action Mar 12, 2008 $2.9961% (85%/82%)20,000 .. 50,0000%00:00 (00:00)
134 ENSLAVED: Odyssey to the West Premium Edition Oct 24, 2013 $19.9961% (85%/70%)200,000 .. 500,0000%00:00 (00:00)
135 CRYPTARK Jun 20, 2017 $14.9958% (84%/80%)50,000 .. 100,0000%00:00 (00:00)
136 The Men of Yoshiwara: Kikuya Oct 15, 2015 $29.9958% (84%)0 .. 20,0000%00:00 (00:00)
137 Demons with Shotguns Apr 25, 2016 $9.99N/A (N/A)0 .. 20,0003.92%01:46 (00:38)
138 Western 1849 Reloaded Feb 10, 2017 $4.9958% (84%)0 .. 20,0000%00:00 (00:00)
139 Delta Force 2 Jun 18, 2009 $4.9958% (84%)50,000 .. 100,0000%00:00 (00:00)
140 Foresight Nov 28, 2014 $4.99N/A (N/A)0 .. 20,0000%00:00 (00:00)
141 Battle Group 2 Jun 13, 2014 $7.9958% (84%)50,000 .. 100,0000%00:00 (00:00)
142 Rooks Keep Dec 5, 2014 $7.99N/A (N/A)20,000 .. 50,0000%00:00 (00:00)
143 Gurgamoth Feb 16, 2016 $4.99N/A (N/A)50,000 .. 100,0000.67%00:30 (00:10)
144 Legend (1994) Apr 1, 1994 $2.24N/A (N/A)0 .. 20,0000%00:00 (00:00)
145 Last Knight: Rogue Rider Edition Oct 3, 2014 $7.9958% (84%)20,000 .. 50,0000%00:00 (00:00)
146 Fat Chicken Dec 4, 2014 $9.99N/A (N/A)0 .. 20,0000%00:00 (00:00)
147 Ace of Protectors Jun 27, 2016 $1.99N/A (N/A)0 .. 20,0001.59%01:08 (00:22)
148 Orbital Gear Aug 7, 2014 $9.9956% (83%/59%)200,000 .. 500,0000.41%02:12 (00:52)
149 Sudden Strike 2 Gold Aug 30, 2002 $5.9956% (83%)20,000 .. 50,0000%00:00 (00:00)
150 Conflict Desert Storm May 28, 2012 $6.9956% (83%/56%)50,000 .. 100,0000%00:00 (00:00)
151 Galaxy Admirals Jan 17, 2017 $1.9956% (83%)50,000 .. 100,0000.75%00:12 (00:07)
152 Crush Your Enemies Jul 13, 2016 $9.9956% (83%/63%)20,000 .. 50,0000%00:00 (00:00)
153 GIBZ Apr 7, 2017 $7.9956% (83%)0 .. 20,0005.56%04:05 (01:21)
154 NOBUNAGA'S AMBITION: Sphere of Influence Sep 1, 2015 $59.9956% (83%/70%)20,000 .. 50,0007.69%16:43 (05:34)
155 Eador: Genesis Oct 14, 2013 $5.9956% (83%)50,000 .. 100,0000.7%29:32 (09:50)
156 Advanced Tactics Gold Aug 15, 2014 $29.9956% (83%)0 .. 20,0000%00:00 (00:00)
157 Square Brawl Oct 22, 2015 $4.9953% (82%)0 .. 20,0000%00:00 (00:00)
158 htoL#NiQ: The Firefly Diary / htoL#NiQ-ホタルノニッキ- May 18, 2016 $9.9953% (82%)20,000 .. 50,0000%00:00 (00:00)
159 TY the Tasmanian Tiger 4 Sep 17, 2015 $5.9953% (82%)0 .. 20,0000%00:00 (00:00)
160 Rack N Ruin Sep 1, 2015 $9.99N/A (N/A)0 .. 20,0000%00:00 (00:00)
161 Decisive Campaigns: The Blitzkrieg from Warsaw to Paris Jan 22, 2015 $39.99N/A (N/A)0 .. 20,0000%00:00 (00:00)
162 After The End: The Harvest Jun 2, 2017 $4.9953% (82%)20,000 .. 50,0000%00:00 (00:00)
163 Bulletstorm: Full Clip Edition Apr 7, 2017 $39.9953% (82%/76%)50,000 .. 100,00026.42%03:27 (03:13)
164 Disciples Sacred Lands Gold Oct 7, 2014 $7.9953% (82%)20,000 .. 50,0000%00:00 (00:00)
165 PixelJunk Shooter Ultimate Oct 21, 2015 $9.9953% (82%)20,000 .. 50,0001.89%00:32 (00:10)
166 Weapon of Choice Sep 23, 2015 $4.99N/A (N/A)0 .. 20,0000%00:00 (00:00)
167 Shadow Ops: Red Mercury Jul 2, 2014 $6.9953% (82%/61%)20,000 .. 50,0000%00:00 (00:00)
168 She Wants Me Dead May 13, 2016 $7.99N/A (N/A)0 .. 20,0000%00:00 (00:00)
169 Graviteam Tactics: Operation Star Feb 11, 2014 $29.9951% (81%)20,000 .. 50,0000%00:00 (00:00)
170 Jim Power -The Lost Dimension Dec 10, 1993 $1.99N/A (N/A)0 .. 20,0000%00:00 (00:00)
171 Toadled Sep 22, 2016 $0.9951% (81%)50,000 .. 100,0000.6%02:55 (01:56)
172 Concealed Intent Aug 2, 2016 $14.99N/A (N/A)0 .. 20,0000%00:00 (00:00)
173 Blade Arcus from Shining: Battle Arena Jul 28, 2016 $29.9951% (81%)0 .. 20,0000%00:00 (00:00)
174 In Verbis Virtus Apr 3, 2015 $19.9951% (81%)50,000 .. 100,0001.85%01:17 (00:51)
175 rymdkapsel Jan 30, 2014 $7.9951% (81%/77%)0 .. 20,0000%00:00 (00:00)
176 Fleet Command Oct 26, 2006 $9.9951% (81%)50,000 .. 100,0000%00:00 (00:00)
177 Anomaly 2 May 15, 2013 $14.9949% (80%/77%)200,000 .. 500,0000.2%00:01 (00:00)
178 Run Rabbit Run Mar 31, 2016 $3.99N/A (N/A)0 .. 20,0001.79%01:31 (00:30)
179 Perimeter Apr 3, 2014 $3.9949% (80%/77%)20,000 .. 50,0000%00:00 (00:00)
180 Gun Metal Jan 16, 2014 $2.9949% (80%)200,000 .. 500,0000.77%02:40 (03:38)
181 Locoland Nov 22, 2003 $4.9949% (80%)0 .. 20,0006.67%53:08 (17:42)
182 Star Wolves 3: Civil War Mar 2, 2010 $4.9949% (80%)100,000 .. 200,0000%00:00 (00:00)
183 Fate of the World Feb 28, 2011 $9.9949% (80%/70%)50,000 .. 100,0000%00:00 (00:00)
184 ROD: Revolt Of Defense Aug 12, 2016 $0.9949% (80%)20,000 .. 50,0000%00:00 (00:00)
185 Fantasy Wars Aug 6, 2010 $4.9949% (80%/67%)50,000 .. 100,0000%00:00 (00:00)
186 Ninjahtic Jul 6, 2015 $1.9949% (80%)0 .. 20,0000%00:00 (00:00)
187 Dominions 3: The Awakening Sep 10, 2013 $19.9949% (80%/82%)0 .. 20,0000%00:00 (00:00)
188 Hail to the King: Deathbat Oct 30, 2014 $5.9949% (80%)0 .. 20,0000%00:00 (00:00)
189 Envoy Mar 17, 2016 $4.99N/A (N/A)50,000 .. 100,0000%00:00 (00:00)
190 Conquest of Elysium 3 Oct 24, 2012 $9.9949% (80%)20,000 .. 50,0000%00:00 (00:00)
191 Age of Gladiators Feb 25, 2016 $9.9949% (80%)20,000 .. 50,0000%00:00 (00:00)
192 Child Of Ault Jan 24, 2017 $9.99N/A (N/A)0 .. 20,0000%00:00 (00:00)
193 7,62 High Calibre Apr 30, 2014 $4.9949% (80%)20,000 .. 50,0000%00:00 (00:00)
194 Enemy Mind Jun 6, 2014 $9.9949% (80%)200,000 .. 500,0000%00:00 (00:00)
195 Making History: The Calm & the Storm Mar 13, 2007 $4.9949% (80%/70%)50,000 .. 100,0000%00:00 (00:00)
196 Demolition Inc. Sep 19, 2011 $5.9949% (80%)50,000 .. 100,0000%00:00 (00:00)
197 Age of Wonders Oct 2010 $1.4949% (80%)100,000 .. 200,0000%00:00 (00:00)
198 Trigger Runners Mar 3, 2016 $1.99N/A (N/A)0 .. 20,0000%00:00 (00:00)
199 Supreme Ruler 2020 Gold Jul 9, 2009 $9.9949% (80%/65%)50,000 .. 100,0000%00:00 (00:00)
200 Cultures - 8th Wonder of the World Mar 26, 2015 $4.9949% (80%)50,000 .. 100,0000%00:00 (00:00)
201 Klang Sep 22, 2016 $14.9949% (80%/71%)0 .. 20,0000%00:00 (00:00)
202 Bloodsports.TV Mar 30, 2015 $9.9949% (80%/69%)50,000 .. 100,0000.58%01:44 (00:34)
203 Legends of Callasia Jun 10, 2016 $14.9949% (80%)50,000 .. 100,0000%00:00 (00:00)
204 Monday Night Combat Jan 24, 2011 $4.9949% (80%/82%)200,000 .. 500,0000%00:00 (00:00)
205 Tiki Man Jun 4, 2015 $0.9949% (80%)20,000 .. 50,0000.64%07:47 (02:35)
206 Junk Jack Nov 30, 2016 $14.9949% (80%)0 .. 20,00010%00:50 (00:16)
207 Interplanetary May 12, 2015 N/A49% (80%)100,000 .. 200,0007.24%04:11 (04:09)
208 Tank Destroyer Mar 9, 2017 $2.9946% (79%)20,000 .. 50,0002.22%03:12 (02:07)
209 Protoshift Jan 15, 2016 $0.99N/A (N/A)0 .. 20,0000%00:00 (00:00)
210 Fortified Feb 3, 2016 $14.9946% (79%)500,000 .. 1,000,0002.02%03:56 (03:25)
211 Battle Mages: Sign of Darkness Jul 24, 2014 $4.9946% (79%)0 .. 20,0000%00:00 (00:00)
212 David. Feb 16, 2015 $1.9946% (79%)50,000 .. 100,0000%00:00 (00:00)
213 TASTEE: Lethal Tactics May 10, 2016 $14.9946% (79%)20,000 .. 50,0000%00:00 (00:00)
214 Afghanistan '11 Mar 23, 2017 $29.9946% (79%)0 .. 20,0000%00:00 (00:00)
215 Blue Effect VR Sep 29, 2016 $14.9946% (79%)0 .. 20,0000%00:00 (00:00)
216 Defense Zone 3 Ultra HD Dec 14, 2016 $2.9946% (79%)0 .. 20,0000%00:00 (00:00)
217 TRON RUN/r Feb 16, 2016 $19.9946% (79%)0 .. 20,0000%00:00 (00:00)
218 Ironcast Mar 26, 2015 $14.9946% (79%/75%)20,000 .. 50,0000%00:00 (00:00)
219 Nuclear Dawn Sep 26, 2011 $9.9946% (79%/71%)200,000 .. 500,0000.2%00:05 (00:01)
220 Gatling Gears Aug 30, 2011 $9.9946% (79%)20,000 .. 50,0000%00:00 (00:00)
221 Zeno Clash 2 Apr 30, 2013 $14.9946% (79%)200,000 .. 500,0000.77%03:04 (02:02)
222 Zombie Party Jun 10, 2016 $9.9946% (79%)100,000 .. 200,0004.88%02:42 (01:41)
223 Caster Mar 19, 2009 $1.9946% (79%)200,000 .. 500,0000.16%03:12 (01:04)
224 Umihara Kawase Shun: Steam Edition Nov 24, 2015 $11.99N/A (N/A)0 .. 20,0000%00:00 (00:00)
225 Dead Rising 2: Off the Record Oct 11, 2011 $19.9944% (78%/66%)200,000 .. 500,0000.69%01:05 (00:19)
226 Advent Rising Sep 14, 2006 $9.9944% (78%/70%)50,000 .. 100,0000%00:00 (00:00)
227 Warhammer 40,000: Armageddon Nov 26, 2014 $39.9944% (78%/68%)20,000 .. 50,0000%00:00 (00:00)
228 The Legend of Dark Witch Dec 1, 2015 $4.9944% (78%)20,000 .. 50,0000%00:00 (00:00)
229 Aeon Command Jul 3, 2014 $0.7444% (78%)20,000 .. 50,0000%00:00 (00:00)
230 King of Dragon Pass Jul 28, 2015 $11.9944% (78%)20,000 .. 50,0000%00:00 (00:00)
231 Making History II: The War of the World Aug 27, 2010 $14.9944% (78%/38%)20,000 .. 50,0000%00:00 (00:00)
232 Bet On Soldier Dec 5, 2014 $7.9944% (78%)20,000 .. 50,0000%00:00 (00:00)
233 Pharaonic Apr 28, 2016 $14.9944% (78%)20,000 .. 50,0003.7%00:33 (00:11)
234 Battlezone Gold Edition May 11, 2017 $34.9944% (78%)0 .. 20,0000%00:00 (00:00)
235 Strike Suit Zero: Director's Cut Apr 8, 2014 $19.9944% (78%)20,000 .. 50,0001.92%00:03 (00:01)
236 Mold on Pizza Sep 25, 2015 $5.9944% (78%)0 .. 20,0000%00:00 (00:00)
237 PAC-MAN and the Ghostly Adventures Oct 29, 2013 $19.9944% (78%)0 .. 20,0000%00:00 (00:00)
238 Vietnam ‘65 Mar 5, 2015 $9.9944% (78%/81%)0 .. 20,0003.85%15:17 (05:05)
239 Deadly 30 Jan 8, 2014 $4.9944% (78%)100,000 .. 200,0000.32%02:50 (00:56)
240 Star Realms Mar 8, 2016 Free44% (78%)100,000 .. 200,0000%00:00 (00:00)
241 Starscape Nov 3, 2008 $7.9944% (78%)20,000 .. 50,0000%00:00 (00:00)
242 Zombie Killtime Aug 4, 2015 $1.99N/A (N/A)0 .. 20,0000%00:00 (00:00)
243 Anomaly Warzone Earth Mobile Campaign Nov 6, 2013 $4.9942% (77%)100,000 .. 200,0000%00:00 (00:00)
244 Curse of the Crescent Isle DX Aug 21, 2015 $4.9942% (77%)0 .. 20,0000%00:00 (00:00)
245 Velocity 2X Aug 19, 2015 $19.99N/A (N/A)50,000 .. 100,0000%00:00 (00:00)
246 The Political Machine 2016 Feb 4, 2016 $9.9942% (77%)50,000 .. 100,0000.73%00:14 (00:04)
247 Sky Gamblers: Storm Raiders Jan 7, 2015 $9.9942% (77%)0 .. 20,0000%00:00 (00:00)
248 Mysterium: A Psychic Clue Game Jan 12, 2017 $6.9942% (77%)50,000 .. 100,0000.53%00:01 (00:00)
249 Starchaser: Priestess of the Night Sky Jul 24, 2015 $3.29N/A (N/A)0 .. 20,0000%00:00 (00:00)
250 Heroes of Might & Magic V: Hammers of Fate Oct 10, 2008 $9.9942% (77%/66%)200,000 .. 500,0000.55%00:02 (00:00)
251 McDROID Sep 5, 2014 $9.9942% (77%)0 .. 20,0000%00:00 (00:00)
252 A Blind Legend Apr 7, 2016 $6.9942% (77%)0 .. 20,0000%00:00 (00:00)
253 Dangerous Waters Feb 7, 2006 $14.9942% (77%/82%)50,000 .. 100,0000%00:00 (00:00)
254 Olympia Rising Jul 23, 2015 $4.99N/A (N/A)0 .. 20,0000%00:00 (00:00)
255 Rocket Knight May 11, 2010 $14.9942% (77%/63%)0 .. 20,0000%00:00 (00:00)
256 Corgi Warlock Dec 3, 2015 $1.9941% (76%)20,000 .. 50,0000%00:00 (00:00)
257 BloodRayne Sep 14, 2006 $9.9941% (76%/65%)50,000 .. 100,0000%00:00 (00:00)
258 Cashtronauts Aug 31, 2016 $2.99N/A (N/A)0 .. 20,0000%00:00 (00:00)
259 Fist Puncher Jun 21, 2013 $9.9941% (76%/73%)20,000 .. 50,0000%00:00 (00:00)
260 Z Jul 4, 2014 $1.4941% (76%)100,000 .. 200,0004.19%09:30 (06:22)
261 Warlords Battlecry III May 17, 2004 $9.9941% (76%/73%)0 .. 20,0000%00:00 (00:00)
262 Chaser Jul 16, 2010 $4.9941% (76%/66%)100,000 .. 200,0000%00:00 (00:00)
263 A.R.E.S. Extinction Agenda EX Oct 3, 2014 $9.9941% (76%)0 .. 20,0002.94%05:33 (01:51)
264 GEARGUNS Tank offensive Sep 20, 2016 $7.9941% (76%)20,000 .. 50,0001.39%00:47 (00:15)
265 Deadlings: Rotten Edition Nov 11, 2014 $3.9941% (76%)50,000 .. 100,0000%00:00 (00:00)
266 Extravaganza Rising Jul 21, 2016 N/AN/A (N/A)20,000 .. 50,0000%00:00 (00:00)
267 Painkiller Hell & Damnation Oct 31, 2012 $19.9941% (76%/64%)500,000 .. 1,000,0000.87%01:33 (01:59)
268 Civil War II Jul 3, 2014 $39.9941% (76%)0 .. 20,0000%00:00 (00:00)
269 Pick a Hero Jun 9, 2016 $0.99N/A (N/A)0 .. 20,0000%00:00 (00:00)
270 Master Reboot Oct 29, 2013 $14.9939% (75%/59%)50,000 .. 100,0000%00:00 (00:00)
271 Victory At Sea Aug 8, 2014 $24.9939% (75%)20,000 .. 50,0000%00:00 (00:00)
272 Rocketbirds 2 Evolution Jan 26, 2017 $9.9939% (75%)20,000 .. 50,0000%00:00 (00:00)
273 The Superfluous May 19, 2017 $4.99N/A (N/A)0 .. 20,0003.13%01:55 (00:38)
274 Monster Monpiece Mar 14, 2017 $19.9939% (75%)0 .. 20,0001.69%05:26 (01:48)
275 BossConstructor Oct 24, 2016 $14.9939% (75%)0 .. 20,0000%00:00 (00:00)
276 Onechanbara Z2: Chaos Jun 2, 2016 $39.9939% (75%)0 .. 20,0000%00:00 (00:00)
277 CivCity: Rome Apr 6, 2007 $9.9939% (75%/67%)50,000 .. 100,0000%00:00 (00:00)
278 Hunting Unlimited 2008 Jan 29, 2008 $9.99N/A (N/A)20,000 .. 50,0000%00:00 (00:00)
279 Star Hammer: The Vanguard Prophecy Jun 4, 2015 $19.9939% (75%/69%)0 .. 20,0000%00:00 (00:00)
280 Livelock Aug 30, 2016 $9.9939% (75%/73%)20,000 .. 50,0000%00:00 (00:00)
281 Platformines Mar 28, 2014 $9.9939% (75%/67%)100,000 .. 200,0000.5%00:11 (00:03)
282 Vector Strain Dec 9, 2015 $4.99N/A (N/A)20,000 .. 50,0000%00:00 (00:00)
283 Ubersoldier II Mar 25, 2014 $9.9939% (75%/62%)20,000 .. 50,0000%00:00 (00:00)
284 Heroes of Arca Feb 16, 2017 Free39% (75%)0 .. 20,0000%00:00 (00:00)
285 Perimeter: Emperor's Testament Aug 29, 2006 $3.99N/A (N/A/72%)20,000 .. 50,0000%00:00 (00:00)
286 Riddled Corpses Jun 2, 2015 $7.9939% (75%)20,000 .. 50,0000%00:00 (00:00)
287 Commander: The Great War Jul 25, 2014 $29.9939% (75%)0 .. 20,00020%00:03 (00:01)
288 Albino Lullaby: Episode 1 Sep 15, 2015 $9.9939% (75%)20,000 .. 50,0000%00:00 (00:00)
289 WARSHIFT Oct 12, 2016 $12.9939% (75%)20,000 .. 50,0000%00:00 (00:00)
290 Heaven Forest NIGHTS Mar 13, 2017 $0.9939% (75%)100,000 .. 200,0000.58%01:22 (01:21)
291 FIVE: Champions of Canaan Sep 27, 2016 $3.99N/A (N/A)0 .. 20,0000%00:00 (00:00)
292 Smell Of Death Jul 4, 2016 $9.99N/A (N/A)0 .. 20,0000%00:00 (00:00)
293 LEGO Indiana Jones 2: The Adventure Continues Feb 18, 2010 $19.9937% (74%/66%)50,000 .. 100,0000%00:00 (00:00)
294 FEIST Jul 23, 2015 $9.9937% (74%/65%)20,000 .. 50,0002.44%01:36 (00:32)
295 Phoning Home Feb 7, 2017 $19.9937% (74%/61%)20,000 .. 50,0002.99%07:34 (03:40)
296 Battle Time Sep 29, 2016 $0.9937% (74%)50,000 .. 100,0000%00:00 (00:00)
297 Distant Worlds: Universe May 23, 2014 $59.9937% (74%/81%)50,000 .. 100,0000%00:00 (00:00)
298 AirMech Command Mar 8, 2017 $19.9937% (74%)0 .. 20,0000%00:00 (00:00)
299 Bubsy Two-Fur Jan 1, 1993 $4.9937% (74%)0 .. 20,0002.7%00:24 (00:08)
300 Sid Meier’s Ace Patrol Aug 27, 2013 $4.9937% (74%)500,000 .. 1,000,0000.18%00:44 (00:14)
301 Spirits of Xanadu Mar 26, 2015 $4.9937% (74%)20,000 .. 50,0002.5%01:30 (00:38)
302 Codex of Victory Mar 16, 2017 $14.9937% (74%)0 .. 20,0000%00:00 (00:00)
303 Alarameth TD Jun 23, 2015 $4.99N/A (N/A)0 .. 20,0000%00:00 (00:00)
304 Retrovirus Jan 31, 2013 $9.9935% (73%/70%)20,000 .. 50,0000%00:00 (00:00)
305 Making History: The Great War Jan 29, 2015 $29.9935% (73%)20,000 .. 50,0000%00:00 (00:00)
306 Banzai Escape Mar 16, 2016 $5.9935% (73%)0 .. 20,0000%00:00 (00:00)
307 Supreme Ruler Ultimate Oct 17, 2014 $19.9935% (73%)20,000 .. 50,0004.35%00:21 (00:07)
308 Death by Game Show Jan 22, 2016 $9.99N/A (N/A)20,000 .. 50,0001.56%02:14 (00:44)
309 Viktor Jun 13, 2014 $0.7935% (73%)20,000 .. 50,0000%00:00 (00:00)
310 Gold Rush! Anniversary Nov 7, 2014 $5.99N/A (N/A)100,000 .. 200,0000.26%02:27 (00:49)
311 Othello Mar 19, 2015 $9.99N/A (N/A)0 .. 20,0000%00:00 (00:00)
312 Divinity: Dragon Commander Aug 6, 2013 $39.9935% (73%)200,000 .. 500,0000.63%00:58 (00:38)
313 TableTop Soccer Apr 22, 2016 $0.9935% (73%)0 .. 20,0003.45%04:03 (01:21)
314 VRZ: Torment Jun 9, 2016 $9.9935% (73%)0 .. 20,0000%00:00 (00:00)
315 Hot Tin Roof: The Cat That Wore A Fedora Feb 20, 2015 $14.9935% (73%/66%)100,000 .. 200,0000.53%04:06 (01:22)
316 The Aquatic Adventure of the Last Human Jan 19, 2016 $9.9935% (73%/76%)0 .. 20,0004%01:08 (00:22)
317 Vampire of the Sands Jul 17, 2015 $4.9935% (73%)20,000 .. 50,0000%00:00 (00:00)
318 Battle Fleet 2 Nov 20, 2014 $14.9935% (73%)20,000 .. 50,0000%00:00 (00:00)
319 Smithy Jun 3, 2016 $3.99N/A (N/A)50,000 .. 100,0000%00:00 (00:00)
320 rooMaze Mar 3, 2017 $1.9935% (73%)100,000 .. 200,0000.42%01:00 (00:20)
321 Tom Clancy's EndWar Feb 25, 2009 $9.9933% (72%/68%)50,000 .. 100,0001.39%00:01 (00:00)
322 Deadnaut Dec 8, 2014 $9.9933% (72%)0 .. 20,0000%00:00 (00:00)
323 Cuban Missile Crisis Mar 25, 2015 $4.9933% (72%)20,000 .. 50,0000%00:00 (00:00)
324 Pike and Shot : Campaigns Aug 13, 2015 $39.9933% (72%)0 .. 20,0000%00:00 (00:00)
325 Wyv and Keep: The Temple of the Lost Idol Aug 8, 2014 $14.99N/A (N/A)20,000 .. 50,0000%00:00 (00:00)
326 King Arthur - The Role-playing Wargame Nov 24, 2009 $9.9933% (72%)200,000 .. 500,0000%00:00 (00:00)
327 Pongo May 14, 2015 $0.9933% (72%)50,000 .. 100,0000.74%01:31 (00:30)
328 Rise & Shine Jan 13, 2017 $14.9933% (72%)20,000 .. 50,0000%00:00 (00:00)
329 Rex Rocket Aug 5, 2014 $4.9933% (72%)20,000 .. 50,0000%00:00 (00:00)
330 Panzer Tactics HD May 22, 2014 $9.9933% (72%/69%)20,000 .. 50,0000%00:00 (00:00)
331 Auro: A Monster-Bumping Adventure Apr 13, 2016 $6.99N/A (N/A)0 .. 20,0000%00:00 (00:00)
332 Airship Dragoon Aug 26, 2014 $19.99N/A (N/A)0 .. 20,0000%00:00 (00:00)
333 Cast of the Seven Godsends - Redux Jul 20, 2015 $9.9933% (72%)20,000 .. 50,0000.93%00:15 (00:05)
334 Fatal Fight Jun 10, 2016 $2.99N/A (N/A)0 .. 20,0000%00:00 (00:00)
335 Lost Planet: Extreme Condition Jun 26, 2007 $14.9933% (72%/66%)200,000 .. 500,0000.63%00:05 (00:01)
336 Cross of the Dutchman Sep 10, 2015 $8.9933% (72%/59%)20,000 .. 50,0000%00:00 (00:00)
337 The Last Federation Apr 18, 2014 $19.9933% (72%/72%)50,000 .. 100,0000.75%01:08 (00:22)
338 Zoo Empire Aug 1, 2004 $6.99N/A (N/A/59%)0 .. 20,0000%00:00 (00:00)
339 Warp Mar 21, 2012 $9.9933% (72%)20,000 .. 50,0000%00:00 (00:00)
340 Zombie Camp Jul 31, 2016 $1.99N/A (N/A)0 .. 20,0000%00:00 (00:00)
341 Elliot Quest Nov 10, 2014 $9.9932% (71%)20,000 .. 50,0001.41%00:19 (00:06)
342 Disney Planes Oct 6, 2014 $19.99N/A (N/A)0 .. 20,0000%00:00 (00:00)
343 Revolution Under Siege Gold Jul 2, 2015 $24.9932% (71%)0 .. 20,0000%00:00 (00:00)
344 A.R.E.S.: Extinction Agenda Jan 19, 2011 $4.9932% (71%/68%)100,000 .. 200,0000%00:00 (00:00)
345 Civil War: Battle of Petersburg Feb 8, 2017 $0.9932% (71%)0 .. 20,0000%00:00 (00:00)
346 Sengoku Jidai: Shadow of the Shogun May 19, 2016 $29.9932% (71%/80%)0 .. 20,0000%00:00 (00:00)
347 There Came an Echo Feb 24, 2015 $14.9932% (71%/58%)20,000 .. 50,0001.59%01:38 (00:32)
348 Elven Legacy Apr 7, 2009 $4.9932% (71%/71%)50,000 .. 100,0000%00:00 (00:00)
349 BitMaster Oct 12, 2016 $2.9932% (71%)100,000 .. 200,0000.29%00:36 (00:24)
350 REDCON Apr 22, 2016 $5.9932% (71%)0 .. 20,0000%00:00 (00:00)
351 Jagged Alliance 2 - Wildfire Nov 16, 2012 $6.9930% (70%)200,000 .. 500,0001.83%06:51 (06:40)
352 Brigade E5: New Jagged Union Apr 30, 2014 $3.99N/A (N/A/41%)0 .. 20,0000%00:00 (00:00)
353 Lux Delux May 1, 2015 $9.9930% (70%)20,000 .. 50,0000%00:00 (00:00)
354 Pigmentone Jul 8, 2016 $1.99N/A (N/A)0 .. 20,0003.57%01:25 (00:28)
355 Strategy & Tactics: Wargame Collection Apr 22, 2016 $9.9930% (70%)20,000 .. 50,0001.89%01:34 (01:02)
356 Wildlife Park 2 - Crazy Zoo Jul 17, 2014 $3.99N/A (N/A)20,000 .. 50,0000%00:00 (00:00)
357 Space Colony: Steam Edition Apr 30, 2015 $14.9930% (70%/74%)20,000 .. 50,0001.32%00:02 (00:00)
358 Little King's Story Aug 5, 2016 $19.9928% (69%/62%)0 .. 20,0000%00:00 (00:00)
359 Warhammer 40,000: Armageddon - Da Orks Aug 18, 2016 $19.99N/A (N/A)0 .. 20,0000%00:00 (00:00)
360 1775: Rebellion Sep 29, 2016 $24.99N/A (N/A)0 .. 20,00012.96%04:28 (05:48)
361 Collapse Apr 11, 2014 $19.9928% (69%)20,000 .. 50,0000%00:00 (00:00)
362 Guns n Zombies Oct 30, 2014 $7.9928% (69%)100,000 .. 200,0000.98%01:11 (00:41)
363 UnSummoning: the Spectral Horde Dec 21, 2015 $3.99N/A (N/A)0 .. 20,0000%00:00 (00:00)
364 Sol 0: Mars Colonization Jan 15, 2016 $3.9928% (69%)20,000 .. 50,0000%00:00 (00:00)
365 Spud's Quest Jul 31, 2014 $7.99N/A (N/A)0 .. 20,0000%00:00 (00:00)
366 Warrior Kings Apr 24, 2014 $9.99N/A (N/A/73%)0 .. 20,0000%00:00 (00:00)
367 The Nightmare Cooperative Jul 16, 2014 $4.99N/A (N/A)50,000 .. 100,0000%00:00 (00:00)
368 Incandescent Jun 30, 2015 $0.9928% (69%)20,000 .. 50,0000%00:00 (00:00)
369 YAIBA: NINJA GAIDEN Z Mar 21, 2014 $29.9927% (68%/49%)20,000 .. 50,0000%00:00 (00:00)
370 FIVE: Guardians of David Nov 24, 2015 $9.9927% (68%/66%)20,000 .. 50,0000%00:00 (00:00)
371 Zombie City Defense 2 Aug 19, 2016 $9.9927% (68%)0 .. 20,0000%00:00 (00:00)
372 ManaCollect Apr 17, 2015 $6.99N/A (N/A)0 .. 20,0000%00:00 (00:00)
373 Space Food Truck Mar 25, 2016 $9.9927% (68%)20,000 .. 50,0000%00:00 (00:00)
374 The Hive Aug 25, 2016 $9.9927% (68%)20,000 .. 50,0000%00:00 (00:00)
375 RISK: Factions Mar 8, 2011 $9.9927% (68%/77%)50,000 .. 100,0000%00:00 (00:00)
376 Toren May 11, 2015 $9.9927% (68%/57%)50,000 .. 100,0001.24%05:13 (02:31)
377 Alea Jacta Est Nov 4, 2014 $24.9925% (67%)0 .. 20,0000%00:00 (00:00)
378 Theatre of War 2: Africa 1943 Jul 9, 2010 $4.9925% (67%/63%)100,000 .. 200,0000%00:00 (00:00)
379 Nomad Fleet Apr 19, 2016 $9.9925% (67%)0 .. 20,0000%00:00 (00:00)
380 8-Bit Commando Jun 2, 2014 $2.99N/A (N/A)50,000 .. 100,0000.62%00:15 (00:05)
381 Zafehouse: Diaries Sep 6, 2013 $1.9925% (67%)50,000 .. 100,0000%00:00 (00:00)
382 Survivor Squad: Gauntlets Nov 16, 2015 $4.9925% (67%)20,000 .. 50,0000%00:00 (00:00)
383 Bedlam Oct 13, 2015 $12.9925% (67%/54%)100,000 .. 200,0000.31%04:02 (01:20)
384 Stonerid Aug 15, 2014 $4.9925% (67%)50,000 .. 100,0000%00:00 (00:00)
385 Kill The Plumber Dec 31, 2015 $4.9925% (67%)0 .. 20,0000%00:00 (00:00)
386 Mad Combat Marines Jul 13, 2016 $0.9925% (67%)20,000 .. 50,0001.09%01:01 (00:20)
387 Chainsaw Warrior Oct 7, 2013 $4.9925% (67%)100,000 .. 200,0000%00:00 (00:00)
388 Royal Defense Nov 10, 2014 $4.9925% (67%)50,000 .. 100,0000.72%01:18 (00:51)
389 7th Legion Oct 23, 2014 $6.99N/A (N/A)0 .. 20,0000%00:00 (00:00)
390 Fair Strike Feb 5, 2004 $3.99N/A (N/A/56%)0 .. 20,0000%00:00 (00:00)
391 Commander Cool 2 Dec 17, 2015 $2.99N/A (N/A)20,000 .. 50,0000%00:00 (00:00)
392 Sky To Fly: Faster Than Wind Mar 25, 2016 $3.99N/A (N/A)0 .. 20,0000%00:00 (00:00)
393 Urban Pirate Jun 17, 2016 $6.99N/A (N/A)0 .. 20,0000%00:00 (00:00)
394 The Living Dungeon Nov 2, 2015 $12.99N/A (N/A)0 .. 20,0000%00:00 (00:00)
395 Men of War: Condemned Heroes Apr 12, 2012 $7.9924% (66%/57%)100,000 .. 200,0000.61%05:50 (01:56)
396 Toy Odyssey: The Lost and Found Sep 20, 2016 $14.9924% (66%/66%)50,000 .. 100,0000.47%01:35 (00:31)
397 1849 May 8, 2014 $14.9924% (66%)20,000 .. 50,0000%00:00 (00:00)
398 Disney Pirates of the Caribbean: At Worlds End Oct 6, 2014 $19.9924% (66%)0 .. 20,0000%00:00 (00:00)
399 Scourge: Outbreak Apr 2, 2014 $7.9924% (66%)100,000 .. 200,0000%00:00 (00:00)
400 Sengoku Sep 15, 2011 $9.9924% (66%/70%)100,000 .. 200,0000%00:00 (00:00)
401 March of the Eagles Feb 18, 2013 $19.9924% (66%/71%)50,000 .. 100,0000%00:00 (00:00)
402 Marauder Apr 4, 2014 $9.9923% (65%)20,000 .. 50,0000%00:00 (00:00)
403 Devil's Dare 悪魔の挑戦 Oct 21, 2014 $12.9923% (65%)20,000 .. 50,0000%00:00 (00:00)
404 Theatre of War 2: Kursk 1943 Jul 9, 2010 $4.9923% (65%)50,000 .. 100,0000%00:00 (00:00)
405 Zombie Tycoon 2: Brainhov's Revenge Dec 9, 2013 $4.9923% (65%)50,000 .. 100,0000%00:00 (00:00)
406 Infinity Runner Jul 14, 2014 $6.9923% (65%/56%)0 .. 20,0000%00:00 (00:00)
407 Assassin’s Creed Chronicles: India Jan 12, 2016 $9.9923% (65%)20,000 .. 50,0001.75%08:37 (02:52)
408 Ground Breakers Jun 15, 2016 $4.99N/A (N/A)0 .. 20,0000%00:00 (00:00)
409 Frozen Synapse Prime Nov 14, 2014 $24.9923% (65%/83%)100,000 .. 200,0000%00:00 (00:00)
410 A Game of Dwarves Oct 23, 2012 $9.9922% (64%/60%)50,000 .. 100,0000%00:00 (00:00)
411 Kaiju-A-GoGo Apr 23, 2015 $9.9922% (64%)20,000 .. 50,0000%00:00 (00:00)
412 Hunters Of The Dead Sep 4, 2014 $4.9922% (64%)20,000 .. 50,0000%00:00 (00:00)
413 Rise: Battle Lines Nov 17, 2015 $1.99N/A (N/A)0 .. 20,0000%00:00 (00:00)
414 SPACECOM Sep 17, 2014 $9.9922% (64%/68%)100,000 .. 200,0000%00:00 (00:00)
415 Beasts Battle Jun 15, 2016 $1.99N/A (N/A)0 .. 20,0000%00:00 (00:00)
416 Platypus II Aug 15, 2014 $0.6922% (64%)200,000 .. 500,0000.56%04:53 (06:29)
417 Quick Slick Deadly Sep 21, 2015 $1.99N/A (N/A)20,000 .. 50,0000%00:00 (00:00)
418 The Seven Years War (1756-1763) Oct 30, 2015 $19.9922% (64%)0 .. 20,0000%00:00 (00:00)
419 Revenge of Roger Rouge Apr 22, 2016 $0.99N/A (N/A)20,000 .. 50,0003.36%04:07 (04:11)
420 Double Dragon IV Jan 30, 2017 $6.9922% (64%/50%)0 .. 20,0000%00:00 (00:00)
421 Link Apr 22, 2016 $4.99N/A (N/A)0 .. 20,0000%00:00 (00:00)
422 Warlock 2: The Exiled Apr 10, 2014 $19.9922% (64%/73%)50,000 .. 100,0001.12%05:23 (01:47)
423 Zoo Rampage Jul 9, 2014 $3.9922% (64%)0 .. 20,0000%00:00 (00:00)
424 War, the Game Jan 12, 2015 $6.9920% (63%/65%)20,000 .. 50,0000%00:00 (00:00)
425 Battle Worlds: Kronos Nov 4, 2013 $19.9920% (63%/71%)20,000 .. 50,0005.88%00:40 (00:13)
426 Malebolgia May 6, 2015 $12.9920% (63%)20,000 .. 50,0000%00:00 (00:00)
427 Will Fight for Food: Super Actual Sellout: Game of the Hour Apr 22, 2015 $5.99N/A (N/A)0 .. 20,0000%00:00 (00:00)
428 Port Royale 2 Jun 16, 2009 $4.9920% (63%/75%)50,000 .. 100,0000%00:00 (00:00)
429 Jagged Alliance: Crossfire Aug 24, 2012 $14.9920% (63%/63%)100,000 .. 200,0000%00:00 (00:00)
430 My Super Tower 2 Jan 27, 2017 $0.99N/A (N/A)0 .. 20,00011.11%03:13 (02:42)
431 Pixel Boy and the Ever Expanding Dungeon May 30, 2014 $0.9920% (63%)20,000 .. 50,0000%00:00 (00:00)
432 4089: Ghost Within Jan 9, 2015 $5.9919% (62%)0 .. 20,0000%00:00 (00:00)
433 Spirit of War Mar 12, 2015 $9.99N/A (N/A)20,000 .. 50,0000%00:00 (00:00)
434 Goblin Defenders: Steel‘n’ Wood Aug 21, 2013 $2.9919% (62%)20,000 .. 50,0001.25%02:32 (00:50)
435 Desert Ashes Nov 10, 2014 $4.99N/A (N/A)20,000 .. 50,0000%00:00 (00:00)
436 The Few Jun 18, 2014 $7.9919% (62%)20,000 .. 50,0000%00:00 (00:00)
437 Sorcerer King: Rivals Sep 22, 2016 $14.9919% (62%)20,000 .. 50,0000%00:00 (00:00)
438 Bombshell Jan 29, 2016 $34.9919% (62%)0 .. 20,0000%00:00 (00:00)
439 Hyperspace Pinball Sep 30, 2015 $2.99N/A (N/A)0 .. 20,0000%00:00 (00:00)
440 Flashback Oct 1, 2013 $9.9918% (61%)20,000 .. 50,0000%00:00 (00:00)
441 Spice Road Apr 24, 2014 $19.99N/A (N/A)0 .. 20,0005.26%12:35 (04:11)
442 Men of War: Vietnam Sep 8, 2011 $7.9918% (61%/68%)100,000 .. 200,0000.96%00:44 (00:29)
443 Battleplan: American Civil War Jul 4, 2014 $9.9918% (61%/66%)100,000 .. 200,0000.57%02:31 (02:30)
444 Legions of Steel Jul 16, 2015 $19.99N/A (N/A/64%)0 .. 20,0000%00:00 (00:00)
445 Gnumz: Masters of Defense Dec 21, 2015 $4.99N/A (N/A)20,000 .. 50,0000.33%04:30 (01:30)
446 BattleLore: Command Mar 31, 2015 $6.9918% (61%)0 .. 20,0000%00:00 (00:00)
447 Call of Duty: Black Ops - Mac Edition Sep 27, 2012 $19.9918% (61%)50,000 .. 100,0000%00:00 (00:00)
448 Freight Tycoon Inc. Apr 3, 2014 $4.9918% (61%)20,000 .. 50,0000%00:00 (00:00)
449 To End All Wars Aug 29, 2014 $39.9918% (61%/71%)0 .. 20,0000%00:00 (00:00)
450 Supreme Ruler: Cold War Jul 29, 2011 $9.9918% (61%/63%)20,000 .. 50,0000%00:00 (00:00)
451 Disney Epic Mickey 2: The Power of Two Oct 6, 2014 $19.9918% (61%)0 .. 20,0000%00:00 (00:00)
452 Patrician IV - Steam Special Edition Sep 17, 2010 $14.9917% (60%/66%)100,000 .. 200,0000%00:00 (00:00)
453 Purgatory Jun 22, 2016 $0.9917% (60%)200,000 .. 500,0000.14%02:42 (01:16)
454 Disciples III - Renaissance Steam Special Edition Jul 16, 2010 $14.9917% (60%/56%)100,000 .. 200,0000%00:00 (00:00)
455 Merchants of Kaidan Nov 10, 2014 $14.9917% (60%)100,000 .. 200,0000%00:00 (00:00)
456 Code of Princess Apr 14, 2016 $14.9917% (60%/53%)0 .. 20,0000%00:00 (00:00)
457 E.T. Armies Mar 3, 2016 $14.9917% (60%/54%)0 .. 20,0000%00:00 (00:00)
458 Overruled! Sep 15, 2015 $12.99N/A (N/A)20,000 .. 50,0000%00:00 (00:00)
459 Cemetery Warrior 3 Feb 3, 2017 $0.9917% (60%)50,000 .. 100,0000%00:00 (00:00)
460 Crazy Forest Jul 6, 2016 $4.99N/A (N/A)100,000 .. 200,0000%00:00 (00:00)
461 Skyshine's BEDLAM Sep 16, 2015 $19.9917% (60%/67%)20,000 .. 50,0000%00:00 (00:00)
462 Woolfe - The Red Hood Diaries Mar 17, 2015 $9.9917% (60%/55%)50,000 .. 100,0001.77%02:12 (01:22)
463 Stay Dead Evolution Feb 4, 2015 $5.99N/A (N/A)20,000 .. 50,0000%00:00 (00:00)
464 Check vs Mate Aug 16, 2012 $19.9916% (59%/69%)0 .. 20,0000%00:00 (00:00)
465 Antisquad May 22, 2014 $5.9916% (59%)50,000 .. 100,0000%00:00 (00:00)
466 Prospekt Feb 18, 2016 $9.9916% (59%)20,000 .. 50,0003.33%01:31 (00:30)
467 Quarantine Feb 9, 2017 $9.9916% (59%)0 .. 20,00011.11%00:15 (00:05)
468 Armada 2526 Gold Edition Feb 28, 2013 $19.9916% (59%/66%)20,000 .. 50,0000%00:00 (00:00)
469 NOBUNAGA'S AMBITION: Sphere of Influence - Ascension / 信長の野望・創造 戦国立志伝 Mar 23, 2016 $59.9916% (59%)50,000 .. 100,00012.5%09:36 (03:12)
470 7 Grand Steps: What Ancients Begat Jun 7, 2013 $19.9916% (59%)100,000 .. 200,0000.42%05:03 (01:41)
471 Hybrid Wars Sep 29, 2016 $6.2416% (59%/54%)0 .. 20,0000%00:00 (00:00)
472 Ninjahtic Mind Tricks Jul 16, 2015 $1.99N/A (N/A)0 .. 20,0000%00:00 (00:00)
473 Super Helmets on Fire DX Ultra Edition Plus Alpha Feb 15, 2016 $0.99N/A (N/A)0 .. 20,0000%00:00 (00:00)
474 Close Combat - Panthers in the Fog Nov 19, 2012 $39.9916% (59%)0 .. 20,0000%00:00 (00:00)
475 Unearthed: Trail of Ibn Battuta - Episode 1 - Gold Edition Jan 3, 2014 $4.9915% (58%)20,000 .. 50,0000%00:00 (00:00)
476 Woodle Tree 2: Worlds Sep 16, 2016 $3.9915% (58%)50,000 .. 100,0008.75%05:11 (05:23)
477 Gates of Horizon Dec 18, 2014 $9.9915% (58%)0 .. 20,0005.88%03:20 (01:06)
478 Ceres Oct 16, 2015 $19.9915% (58%/74%)0 .. 20,0000%00:00 (00:00)
479 Heavy Fire: Afghanistan Aug 15, 2014 $2.9915% (58%)20,000 .. 50,0000%00:00 (00:00)
480 Colonial Conquest Jul 28, 2015 $9.9915% (58%)0 .. 20,0000%00:00 (00:00)
481 Adventure World Aug 2, 2016 $4.99N/A (N/A)0 .. 20,0000%00:00 (00:00)
482 Prophour23 Oct 22, 2014 $9.99N/A (N/A)0 .. 20,0000%00:00 (00:00)
483 Wanderlust Adventures Aug 10, 2015 $9.9915% (58%)20,000 .. 50,0000%00:00 (00:00)
484 Life in Bunker Feb 25, 2016 $15.9915% (58%)0 .. 20,0000%00:00 (00:00)
485 Sir! I'd Like To Report A Bug! Oct 19, 2015 $1.99N/A (N/A)0 .. 20,0000%00:00 (00:00)
486 Assault on Arnhem Mar 11, 2016 $9.99N/A (N/A)0 .. 20,00020%06:15 (09:05)
487 Defend Your Crypt Jul 21, 2016 $2.99N/A (N/A)0 .. 20,0000%00:00 (00:00)
488 VR Journey Dec 15, 2016 $0.5N/A (N/A)20,000 .. 50,0000%00:00 (00:00)
489 Dawn of Andromeda May 4, 2017 $29.9914% (57%/70%)0 .. 20,00014.29%00:10 (00:05)
490 Delve Deeper Sep 24, 2010 $4.9913% (56%)50,000 .. 100,0000%00:00 (00:00)
491 Abalone Apr 23, 2014 $6.99N/A (N/A)0 .. 20,0000%00:00 (00:00)
492 Story Of the Survivor Feb 17, 2016 $4.99N/A (N/A)50,000 .. 100,0000%00:00 (00:00)
493 DreamBreak Jul 21, 2016 $2.09N/A (N/A/46%)0 .. 20,0003.45%06:01 (02:00)
494 Rise of Venice Sep 27, 2013 $19.9913% (56%/66%)50,000 .. 100,0000%00:00 (00:00)
495 Grim Seventh Jan 20, 2017 FreeN/A (N/A)0 .. 20,0000%00:00 (00:00)
496 Horizon Feb 6, 2014 $7.4913% (56%)50,000 .. 100,0000%00:00 (00:00)
497 Pain Train Jan 11, 2017 $0.4913% (55%)50,000 .. 100,00012.5%03:18 (03:45)
498 BC Kings Jun 16, 2009 $4.9913% (55%)20,000 .. 50,0000%00:00 (00:00)
499 Sovereignty: Crown of Kings Feb 2, 2017 $24.9913% (55%)0 .. 20,0000%00:00 (00:00)
500 reconquest Dec 16, 2016 $11.9913% (55%)0 .. 20,0000%00:00 (00:00)
501 RESCUE 2: Everyday Heroes Jun 3, 2015 $19.9912% (54%)20,000 .. 50,00020%00:01 (00:00)
502 Crusaders: Thy Kingdom Come Oct 8, 2009 $9.99N/A (N/A)20,000 .. 50,0000%00:00 (00:00)
503 Urja Jan 9, 2015 $9.9912% (54%)20,000 .. 50,0000%00:00 (00:00)
504 Tic-Toc-Tower Sep 28, 2015 $2.99N/A (N/A)0 .. 20,0000%00:00 (00:00)
505 The Stalin Subway Sep 19, 2014 $3.9911% (53%)0 .. 20,0002.56%14:39 (04:53)
506 Armada 2526 Apr 8, 2011 $14.99N/A (N/A/66%)0 .. 20,0000%00:00 (00:00)
507 Defence to death May 11, 2017 $1.99N/A (N/A)50,000 .. 100,0000%00:00 (00:00)
508 Smugglers 5 Apr 11, 2014 $9.9911% (53%)20,000 .. 50,0000%00:00 (00:00)
509 Wickland Feb 6, 2015 $0.9911% (53%)50,000 .. 100,0000%00:00 (00:00)
510 Royal Bounty HD Aug 10, 2015 $2.9911% (52%)0 .. 20,0000%00:00 (00:00)
511 Dusty Revenge:Co-Op Edition Feb 17, 2014 $14.9911% (52%)50,000 .. 100,0000.56%03:23 (01:07)
512 Nightside Apr 2, 2015 $9.9911% (52%)20,000 .. 50,0000%00:00 (00:00)
513 Scapeland Mar 31, 2016 $3.99N/A (N/A)0 .. 20,0000%00:00 (00:00)
514 Meridian: New World Sep 26, 2014 $6.9911% (52%/43%)50,000 .. 100,0000%00:00 (00:00)
515 Biodrone Battle Jul 16, 2015 $1.9910% (51%)100,000 .. 200,0000%00:00 (00:00)
516 MDK2 HD Jul 30, 2012 $14.9910% (51%/73%)0 .. 20,0000%00:00 (00:00)
517 Castle Werewolf 3D Feb 7, 2017 $2.9910% (51%)50,000 .. 100,0000.25%00:59 (00:19)
518 MinosMaze - The Minotaur's Labyrinth May 1, 2017 $4.99N/A (N/A)0 .. 20,0000%00:00 (00:00)
519 Aegis Oct 6, 2016 $2.99N/A (N/A)0 .. 20,0000%00:00 (00:00)
520 Weather Lord: The Successor's Path Apr 8, 2015 $4.99N/A (N/A)0 .. 20,0000%00:00 (00:00)
521 Odd||Even Apr 6, 2016 $0.99N/A (N/A)20,000 .. 50,0000.64%02:33 (00:51)
522 Guncraft Aug 9, 2013 $14.999% (50%/73%)100,000 .. 200,0000%00:00 (00:00)
523 No Pineapple Left Behind Feb 18, 2016 $6.99N/A (N/A/59%)0 .. 20,0000%00:00 (00:00)
524 Albedo: Eyes from Outer Space Apr 10, 2015 $14.999% (50%/66%)50,000 .. 100,0000%00:00 (00:00)
525 Marvel: Ultimate Alliance 2 Jul 26, 2016 $39.999% (49%)0 .. 20,0008%00:51 (00:33)
526 Kidnapped Aug 4, 2015 $1.349% (49%)100,000 .. 200,0000.52%02:10 (01:26)
527 Rubber and Lead Sep 4, 2015 $4.99N/A (N/A)20,000 .. 50,0000.85%02:31 (00:50)
528 Aggression: Europe Under Fire Apr 9, 2014 $9.998% (48%)0 .. 20,0000%00:00 (00:00)
529 Star Traders: 4X Empires Dec 16, 2014 $9.99N/A (N/A)0 .. 20,0000%00:00 (00:00)
530 Meridian: Squad 22 Aug 11, 2016 $14.99N/A (N/A)0 .. 20,0000%00:00 (00:00)
531 Synonymy Mar 5, 2015 $1.99N/A (N/A)0 .. 20,0001.92%00:06 (00:02)
532 ALONE IN SPACE Feb 27, 2016 $4.998% (48%)0 .. 20,0000%00:00 (00:00)
533 PeriAreion Feb 19, 2015 $5.99N/A (N/A)0 .. 20,0000%00:00 (00:00)
534 The Campaign Series: Fall Weiss May 30, 2014 $14.99N/A (N/A)20,000 .. 50,0000%00:00 (00:00)
535 Z Steel Soldiers Aug 1, 2014 $1.298% (47%)50,000 .. 100,0000%00:00 (00:00)
536 Crossfire: Dungeons Jan 15, 2007 $3.998% (47%)0 .. 20,0000%00:00 (00:00)
537 Disposable Heroes Oct 1, 2015 $4.99N/A (N/A)20,000 .. 50,0000%00:00 (00:00)
538 Hero Generations Apr 10, 2015 $5.998% (47%)0 .. 20,0000%00:00 (00:00)
539 Island Defense Jul 23, 2015 $1.99N/A (N/A)50,000 .. 100,0000%00:00 (00:00)
540 Blasting Agent: Ultimate Edition Aug 17, 2016 $2.99N/A (N/A)0 .. 20,0000%00:00 (00:00)
541 Chronostorm: Siberian Border Apr 2, 2009 $0.99N/A (N/A)0 .. 20,0000%00:00 (00:00)
542 HitBox Jan 30, 2017 Free7% (46%)0 .. 20,0000%00:00 (00:00)
543 The Stalin Subway: Red Veil Oct 24, 2014 $2.997% (46%)20,000 .. 50,0000%00:00 (00:00)
544 Megamagic: Wizards of the Neon Age Apr 20, 2016 $9.99N/A (N/A/67%)20,000 .. 50,0003.41%01:42 (01:42)
545 Carrier Command: Gaea Mission Sep 28, 2012 $32.997% (46%/60%)200,000 .. 500,0000%00:00 (00:00)
546 Magic Quest May 6, 2016 $1.99N/A (N/A)50,000 .. 100,0000%00:00 (00:00)
547 Commander: Conquest of the Americas Jul 30, 2010 $9.997% (46%/68%)50,000 .. 100,0000%00:00 (00:00)
548 Hell Nov 13, 2014 $29.99N/A (N/A)0 .. 20,0000%00:00 (00:00)
549 The Bluecoats: North vs South Feb 2, 2015 $4.997% (45%)20,000 .. 50,0000%00:00 (00:00)
550 Impire Feb 14, 2013 $19.997% (45%/45%)100,000 .. 200,0000%00:00 (00:00)
551 World War 2: Time of Wrath Jun 6, 2014 $4.99N/A (N/A)20,000 .. 50,0000%00:00 (00:00)
552 Redemption: Saints And Sinners Nov 18, 2016 $0.996% (44%)50,000 .. 100,0000.64%01:55 (01:16)
553 Pride of Nations Jun 7, 2011 $19.996% (44%/70%)20,000 .. 50,0000%00:00 (00:00)
554 Nux Aug 15, 2014 $6.996% (43%)100,000 .. 200,0000.44%02:07 (02:06)
555 DUNGEONS - Steam Special Edition Feb 10, 2011 $9.996% (43%/65%)200,000 .. 500,0000%00:00 (00:00)
556 Skyward Collapse May 23, 2013 $4.996% (43%/64%)100,000 .. 200,0000%00:00 (00:00)
557 Vendetta - Curse of Raven's Cry Nov 20, 2015 $29.996% (43%)0 .. 20,0000%00:00 (00:00)
558 Burstfire Sep 24, 2015 N/A6% (42%)50,000 .. 100,0000%00:00 (00:00)
559 The Entente Gold Jun 16, 2014 $1.996% (42%)20,000 .. 50,0000%00:00 (00:00)
560 Samudai Feb 9, 2015 $2.99N/A (N/A)20,000 .. 50,0001.52%01:25 (00:28)
561 Sword of the Stars II: Enhanced Edition Nov 30, 2012 $19.996% (42%/65%)100,000 .. 200,0000%00:00 (00:00)
562 Strategic War in Europe Mar 21, 2014 $2.995% (41%)20,000 .. 50,0000.86%00:15 (00:05)
563 Rulers of Nations Jul 16, 2014 $19.995% (41%/63%)0 .. 20,0000%00:00 (00:00)
564 Pain Train 2 Mar 16, 2017 $6.995% (41%)0 .. 20,0004.08%00:30 (00:19)
565 Hydraulic Empire Jul 31, 2015 $7.99N/A (N/A)0 .. 20,0000%00:00 (00:00)
566 Dungeons - The Dark Lord Sep 27, 2011 $19.995% (40%/72%)100,000 .. 200,0000.47%00:16 (00:05)
567 Dead But Alive! Southern England Oct 2, 2015 $14.99N/A (N/A)0 .. 20,0000%00:00 (00:00)
568 The Kings' Crusade Oct 8, 2010 $9.995% (40%/71%)50,000 .. 100,0000%00:00 (00:00)
569 Gratuitous Space Battles 2 Apr 16, 2015 $9.995% (39%)20,000 .. 50,0000%00:00 (00:00)
570 Heavy Fire: Shattered Spear Oct 23, 2015 $3.99N/A (N/A)0 .. 20,0000%00:00 (00:00)
571 Devils & Demons Oct 6, 2015 $9.99N/A (N/A)20,000 .. 50,0000%00:00 (00:00)
572 Dark Matter Oct 17, 2013 $9.995% (39%)0 .. 20,0000%00:00 (00:00)
573 Wave of Darkness Nov 5, 2015 $29.99N/A (N/A)0 .. 20,0000%00:00 (00:00)
574 Mechs & Mercs: Black Talons Jan 9, 2015 $9.995% (39%)0 .. 20,0000%00:00 (00:00)
575 Control Craft 2 Feb 15, 2016 $2.99N/A (N/A)0 .. 20,0002%05:32 (01:50)
576 Risk Jun 10, 2013 $9.994% (38%)20,000 .. 50,0000%00:00 (00:00)
577 Lost in Paradise Aug 20, 2015 $2.99N/A (N/A)20,000 .. 50,0000%00:00 (00:00)
578 Infection: Humanity's Last Gasp May 26, 2016 $9.99N/A (N/A)0 .. 20,00010%07:45 (10:09)
579 Tiamat X May 29, 2015 $1.99N/A (N/A)50,000 .. 100,0000%00:00 (00:00)
580 Zombie Apocalypse: Escape The Undead City Jun 17, 2016 $0.994% (37%)0 .. 20,0000%00:00 (00:00)
581 Knight Adventure Oct 15, 2015 $0.99N/A (N/A)50,000 .. 100,0003.28%04:17 (04:46)
582 Stellar Impact Apr 12, 2012 $9.994% (37%/74%)50,000 .. 100,0000%00:00 (00:00)
583 Kick-Ass 2 Aug 15, 2014 $19.993% (35%)0 .. 20,0000%00:00 (00:00)
584 Sim Junta Aug 18, 2015 $1.993% (35%)0 .. 20,0000%00:00 (00:00)
585 Shadows of War Jan 2, 2015 $2.993% (35%)20,000 .. 50,0000%00:00 (00:00)
586 Urban Empire Jan 20, 2017 $29.993% (35%/62%)50,000 .. 100,0000%00:00 (00:00)
587 Blue Sheep Mar 31, 2016 $1.99N/A (N/A)0 .. 20,0000%00:00 (00:00)
588 CTU: Counter Terrorism Unit Apr 22, 2016 $14.99N/A (N/A)0 .. 20,0000%00:00 (00:00)
589 Fallen: A2P Protocol Aug 14, 2015 $9.993% (34%)20,000 .. 50,0000%00:00 (00:00)
590 Into the Void Dec 4, 2015 $4.99N/A (N/A)20,000 .. 50,0000%00:00 (00:00)
591 Ranger of the jungle Jul 18, 2016 $3.99N/A (N/A)0 .. 20,0000%00:00 (00:00)
592 Jagged Alliance Flashback Oct 21, 2014 $19.993% (33%)20,000 .. 50,0000%00:00 (00:00)
593 Arma Tactics Oct 1, 2013 $8.993% (33%/47%)200,000 .. 500,0000.6%02:19 (01:08)
594 Ku: Shroud of the Morrigan Mar 17, 2014 $4.99N/A (N/A)20,000 .. 50,0000%00:00 (00:00)
595 Evopollution Apr 23, 2014 $4.993% (32%)0 .. 20,0000%00:00 (00:00)
596 Disciples III - Resurrection Oct 11, 2011 $14.992% (31%/63%)100,000 .. 200,0000%00:00 (00:00)
597 A Game of Thrones - Genesis Sep 28, 2011 $9.992% (31%)100,000 .. 200,0000%00:00 (00:00)
598 Psichodelya Aug 8, 2014 $0.99N/A (N/A)100,000 .. 200,0000.85%01:41 (01:40)
599 Zombie Zoeds May 20, 2015 $0.52% (31%)200,000 .. 500,0000.16%04:04 (01:21)
600 Robotex Nov 19, 2014 $4.992% (30%)100,000 .. 200,0000.28%21:22 (07:07)
601 Power of Defense Aug 4, 2010 $9.99N/A (N/A)0 .. 20,0000%00:00 (00:00)
602 Ground Pounders Jul 15, 2014 $4.99N/A (N/A)0 .. 20,0000%00:00 (00:00)
603 Tank Operations: European Campaign Nov 22, 2013 $14.992% (29%)20,000 .. 50,0000%00:00 (00:00)
604 Zombies on a Plane Mar 25, 2016 $4.99N/A (N/A)0 .. 20,0000%00:00 (00:00)
605 Solar Shifter EX Sep 11, 2015 $4.99N/A (N/A)20,000 .. 50,0000%00:00 (00:00)
606 Hard Truck Apocalypse: Arcade / Ex Machina: Arcade Mar 14, 2014 $4.992% (26%)20,000 .. 50,0000%00:00 (00:00)
607 Gridberd Sep 7, 2015 $6.99N/A (N/A)200,000 .. 500,0000.12%02:28 (00:49)
608 One Star Apr 17, 2017 $2.991% (25%)50,000 .. 100,0000.84%01:13 (01:12)
609 APOX Jan 20, 2011 $14.991% (23%/48%)20,000 .. 50,0000%00:00 (00:00)
610 Elite vs. Freedom May 31, 2016 $4.99N/A (N/A)0 .. 20,0000%00:00 (00:00)
611 Lords of the Black Sun Sep 12, 2014 $29.991% (21%)0 .. 20,0000%00:00 (00:00)
612 The Asskickers-Steam Edition Feb 6, 2015 $9.99N/A (N/A)0 .. 20,0000%00:00 (00:00)
613 Gemini Wars Nov 2, 2012 $14.991% (19%/53%)20,000 .. 50,0000%00:00 (00:00)
614 Human Extinction Simulator Jan 21, 2015 $19.99N/A (N/A)0 .. 20,0000%00:00 (00:00)
615 Star Project Aug 4, 2016 $1.99N/A (N/A)100,000 .. 200,0002.78%03:52 (04:33)
616 Tryst Sep 14, 2012 $14.99N/A (N/A/50%)0 .. 20,0000%00:00 (00:00)
617 Prison Tycoon 3: Lockdown Jan 29, 2008 $9.991% (16%)20,000 .. 50,0000%00:00 (00:00)
618 Citadels Jul 25, 2013 $14.991% (13%/20%)20,000 .. 50,0000%00:00 (00:00)
619 Once Bitten, Twice Dead! Jul 17, 2015 $4.99N/A (N/A)20,000 .. 50,0000%00:00 (00:00)
620 Bloodbath Jun 16, 2014 $14.99N/A (N/A)0 .. 20,0000%00:00 (00:00)
621 Magnetic By Nature Nov 10, 2014 $9.99N/A (N/A)20,000 .. 50,0000%00:00 (00:00)

Owners of this game also own:

Access restricted.

This feature is only available to users with special access rights. Sorry.

If you want to proceed, you need to register or log in first and then back Steam Spy on Patreon. Look for Indie or Pro pledge.

Don't forget to use the same email as on Steam Spy!

Playtime distribution:

Access restricted.

This feature is only available to users with special access rights. Sorry.

If you want to proceed, you need to register or log in first and then back Steam Spy on Patreon. Look for Indie or Pro pledge.

Don't forget to use the same email as on Steam Spy!

Playtime (2 weeks):

Access restricted.

This feature is only available to users with special access rights. Sorry.

If you want to proceed, you need to register or log in first and then back Steam Spy on Patreon. Look for Indie or Pro pledge.

Don't forget to use the same email as on Steam Spy!

User reviews:

Login required.

Please register or log in to see this information.